sensor_id;sensor_type;location;lat;lon;timestamp;pressure;altitude;pressure_sealevel;temperature;humidity
13867;BME280;7003;46.982;15.248;2023-02-12T00:00:12;98613.81;;;-1.79;100.00
13867;BME280;7003;46.982;15.248;2023-02-12T00:02:40;98618.41;;;-1.81;100.00
13867;BME280;7003;46.982;15.248;2023-02-12T00:05:08;98624.84;;;-1.84;100.00
13867;BME280;7003;46.982;15.248;2023-02-12T00:07:37;98629.81;;;-1.76;100.00
13867;BME280;7003;46.982;15.248;2023-02-12T00:10:07;98635.59;;;-1.67;100.00
13867;BME280;7003;46.982;15.248;2023-02-12T00:12:40;98636.00;;;-1.70;100.00
13867;BME280;7003;46.982;15.248;2023-02-12T00:15:08;98635.38;;;-1.66;100.00
13867;BME280;7003;46.982;15.248;2023-02-12T00:17:37;98640.41;;;-1.64;100.00
13867;BME280;7003;46.982;15.248;2023-02-12T00:20:05;98640.75;;;-1.61;100.00
13867;BME280;7003;46.982;15.248;2023-02-12T00:22:32;98645.13;;;-1.55;100.00
13867;BME280;7003;46.982;15.248;2023-02-12T00:24:59;98641.75;;;-1.62;100.00
13867;BME280;7003;46.982;15.248;2023-02-12T00:27:30;98651.34;;;-1.49;100.00
13867;BME280;7003;46.982;15.248;2023-02-12T00:30:00;98645.53;;;-1.51;100.00
13867;BME280;7003;46.982;15.248;2023-02-12T00:32:27;98650.28;;;-1.41;100.00
13867;BME280;7003;46.982;15.248;2023-02-12T00:34:56;98654.25;;;-1.70;100.00
13867;BME280;7003;46.982;15.248;2023-02-12T00:37:23;98652.09;;;-1.73;100.00
13867;BME280;7003;46.982;15.248;2023-02-12T00:39:50;98650.72;;;-1.82;100.00
13867;BME280;7003;46.982;15.248;2023-02-12T00:42:20;98652.72;;;-1.84;100.00
13867;BME280;7003;46.982;15.248;2023-02-12T00:44:51;98644.88;;;-1.40;100.00
13867;BME280;7003;46.982;15.248;2023-02-12T00:47:18;98650.09;;;-1.40;100.00
13867;BME280;7003;46.982;15.248;2023-02-12T00:49:45;98659.31;;;-1.44;100.00
13867;BME280;7003;46.982;15.248;2023-02-12T00:52:14;98646.16;;;-1.56;100.00
13867;BME280;7003;46.982;15.248;2023-02-12T00:54:41;98654.81;;;-1.30;100.00
13867;BME280;7003;46.982;15.248;2023-02-12T00:57:08;98646.38;;;-1.26;100.00
13867;BME280;7003;46.982;15.248;2023-02-12T00:59:38;98651.41;;;-1.31;100.00
13867;BME280;7003;46.982;15.248;2023-02-12T01:02:08;98650.38;;;-1.30;100.00
13867;BME280;7003;46.982;15.248;2023-02-12T01:04:35;98639.94;;;-1.30;100.00
13867;BME280;7003;46.982;15.248;2023-02-12T01:07:02;98644.81;;;-1.33;100.00
13867;BME280;7003;46.982;15.248;2023-02-12T01:09:29;98642.56;;;-1.30;100.00
13867;BME280;7003;46.982;15.248;2023-02-12T01:11:58;98641.56;;;-1.29;100.00
13867;BME280;7003;46.982;15.248;2023-02-12T01:14:28;98637.50;;;-1.49;100.00
13867;BME280;7003;46.982;15.248;2023-02-12T01:16:57;98638.28;;;-1.49;100.00
13867;BME280;7003;46.982;15.248;2023-02-12T01:19:26;98638.09;;;-1.47;100.00
13867;BME280;7003;46.982;15.248;2023-02-12T01:21:53;98651.75;;;-1.52;100.00
13867;BME280;7003;46.982;15.248;2023-02-12T01:24:23;98651.91;;;-1.47;100.00
13867;BME280;7003;46.982;15.248;2023-02-12T01:26:50;98647.84;;;-1.36;100.00
13867;BME280;7003;46.982;15.248;2023-02-12T01:29:19;98652.78;;;-1.28;100.00
13867;BME280;7003;46.982;15.248;2023-02-12T01:31:49;98648.63;;;-1.36;100.00
13867;BME280;7003;46.982;15.248;2023-02-12T01:34:18;98650.53;;;-1.18;100.00
13867;BME280;7003;46.982;15.248;2023-02-12T01:36:46;98651.38;;;-1.24;100.00
13867;BME280;7003;46.982;15.248;2023-02-12T01:39:15;98655.75;;;-1.18;100.00
13867;BME280;7003;46.982;15.248;2023-02-12T01:41:45;98656.31;;;-1.16;100.00
13867;BME280;7003;46.982;15.248;2023-02-12T01:44:16;98659.97;;;-1.17;100.00
13867;BME280;7003;46.982;15.248;2023-02-12T01:46:46;98659.97;;;-1.17;100.00
13867;BME280;7003;46.982;15.248;2023-02-12T01:49:19;98664.13;;;-1.16;100.00
13867;BME280;7003;46.982;15.248;2023-02-12T01:51:57;98655.34;;;-1.22;100.00
13867;BME280;7003;46.982;15.248;2023-02-12T01:54:27;98661.31;;;-0.90;100.00
13867;BME280;7003;46.982;15.248;2023-02-12T01:57:05;98651.72;;;-0.71;100.00
13867;BME280;7003;46.982;15.248;2023-02-12T01:59:39;98646.03;;;-0.86;100.00
13867;BME280;7003;46.982;15.248;2023-02-12T02:02:07;98638.53;;;-1.01;100.00
13867;BME280;7003;46.982;15.248;2023-02-12T02:04:40;98639.00;;;-1.10;100.00
13867;BME280;7003;46.982;15.248;2023-02-12T02:07:12;98632.69;;;-0.78;100.00
13867;BME280;7003;46.982;15.248;2023-02-12T02:09:42;98638.69;;;-0.96;100.00
13867;BME280;7003;46.982;15.248;2023-02-12T02:12:10;98628.75;;;-0.87;100.00
13867;BME280;7003;46.982;15.248;2023-02-12T02:14:58;98628.81;;;-0.94;100.00
13867;BME280;7003;46.982;15.248;2023-02-12T02:17:36;98637.03;;;-0.90;100.00
13867;BME280;7003;46.982;15.248;2023-02-12T02:26:53;98649.88;;;-0.89;100.00
13867;BME280;7003;46.982;15.248;2023-02-12T02:29:41;98640.06;;;-0.93;100.00
13867;BME280;7003;46.982;15.248;2023-02-12T02:32:18;98627.41;;;-0.71;100.00
13867;BME280;7003;46.982;15.248;2023-02-12T02:34:55;98624.06;;;-0.79;100.00
13867;BME280;7003;46.982;15.248;2023-02-12T02:37:30;98637.59;;;-0.63;100.00
13867;BME280;7003;46.982;15.248;2023-02-12T02:40:04;98629.81;;;-0.52;100.00
13867;BME280;7003;46.982;15.248;2023-02-12T02:42:43;98641.09;;;-0.76;100.00
13867;BME280;7003;46.982;15.248;2023-02-12T02:45:17;98654.81;;;-0.81;100.00
13867;BME280;7003;46.982;15.248;2023-02-12T02:47:52;98664.47;;;-0.81;100.00
13867;BME280;7003;46.982;15.248;2023-02-12T02:50:23;98664.09;;;-0.85;100.00
13867;BME280;7003;46.982;15.248;2023-02-12T02:52:56;98651.94;;;-0.72;100.00
13867;BME280;7003;46.982;15.248;2023-02-12T02:55:31;98650.88;;;-0.47;100.00
13867;BME280;7003;46.982;15.248;2023-02-12T02:58:05;98657.09;;;-0.66;100.00
13867;BME280;7003;46.982;15.248;2023-02-12T03:00:40;98659.25;;;-0.81;100.00
13867;BME280;7003;46.982;15.248;2023-02-12T03:03:15;98667.75;;;-0.86;100.00
13867;BME280;7003;46.982;15.248;2023-02-12T03:05:49;98664.69;;;-0.83;100.00
13867;BME280;7003;46.982;15.248;2023-02-12T03:08:23;98670.84;;;-0.77;100.00
13867;BME280;7003;46.982;15.248;2023-02-12T03:10:56;98670.66;;;-0.75;100.00
13867;BME280;7003;46.982;15.248;2023-02-12T03:13:33;98665.69;;;-0.84;100.00
13867;BME280;7003;46.982;15.248;2023-02-12T03:16:06;98664.69;;;-0.83;100.00
13867;BME280;7003;46.982;15.248;2023-02-12T03:18:42;98665.06;;;-0.79;100.00
13867;BME280;7003;46.982;15.248;2023-02-12T03:21:15;98662.00;;;-0.76;100.00
13867;BME280;7003;46.982;15.248;2023-02-12T03:23:51;98664.88;;;-0.84;100.00
13867;BME280;7003;46.982;15.248;2023-02-12T03:26:25;98672.03;;;-0.73;100.00
13867;BME280;7003;46.982;15.248;2023-02-12T03:28:56;98665.81;;;-0.54;100.00
13867;BME280;7003;46.982;15.248;2023-02-12T03:31:30;98660.78;;;-0.73;100.00
13867;BME280;7003;46.982;15.248;2023-02-12T03:34:06;98673.38;;;-0.89;100.00
13867;BME280;7003;46.982;15.248;2023-02-12T03:36:38;98676.25;;;-0.72;100.00
13867;BME280;7003;46.982;15.248;2023-02-12T03:39:11;98669.31;;;-0.85;100.00
13867;BME280;7003;46.982;15.248;2023-02-12T03:41:43;98670.78;;;-0.89;100.00
13867;BME280;7003;46.982;15.248;2023-02-12T03:44:23;98662.13;;;-0.89;100.00
13867;BME280;7003;46.982;15.248;2023-02-12T03:47:00;98666.56;;;-0.90;100.00
13867;BME280;7003;46.982;15.248;2023-02-12T03:49:34;98682.06;;;-0.95;100.00
13867;BME280;7003;46.982;15.248;2023-02-12T03:52:05;98682.28;;;-0.96;100.00
13867;BME280;7003;46.982;15.248;2023-02-12T03:54:34;98687.97;;;-0.81;100.00
13867;BME280;7003;46.982;15.248;2023-02-12T03:57:05;98693.88;;;-0.86;100.00
13867;BME280;7003;46.982;15.248;2023-02-12T03:59:34;98701.31;;;-0.89;100.00
13867;BME280;7003;46.982;15.248;2023-02-12T04:02:04;98709.31;;;-0.84;100.00
13867;BME280;7003;46.982;15.248;2023-02-12T04:04:34;98699.22;;;-1.05;100.00
13867;BME280;7003;46.982;15.248;2023-02-12T04:07:02;98697.81;;;-1.01;100.00
13867;BME280;7003;46.982;15.248;2023-02-12T04:09:31;98706.00;;;-0.98;100.00
13867;BME280;7003;46.982;15.248;2023-02-12T04:12:11;98711.75;;;-0.89;100.00
13867;BME280;7003;46.982;15.248;2023-02-12T04:14:49;98708.69;;;-0.80;100.00
13867;BME280;7003;46.982;15.248;2023-02-12T04:17:25;98716.78;;;-0.88;100.00
13867;BME280;7003;46.982;15.248;2023-02-12T04:20:08;98725.19;;;-0.61;100.00
13867;BME280;7003;46.982;15.248;2023-02-12T04:22:45;98727.56;;;-0.77;100.00
13867;BME280;7003;46.982;15.248;2023-02-12T04:25:27;98729.25;;;-0.90;100.00
13867;BME280;7003;46.982;15.248;2023-02-12T04:28:08;98720.88;;;-0.98;100.00
13867;BME280;7003;46.982;15.248;2023-02-12T04:30:41;98727.00;;;-1.11;100.00
13867;BME280;7003;46.982;15.248;2023-02-12T04:33:14;98723.56;;;-1.11;100.00
13867;BME280;7003;46.982;15.248;2023-02-12T04:35:48;98720.13;;;-1.05;100.00
13867;BME280;7003;46.982;15.248;2023-02-12T04:38:21;98719.22;;;-1.18;100.00
13867;BME280;7003;46.982;15.248;2023-02-12T04:40:50;98709.44;;;-1.29;100.00
13867;BME280;7003;46.982;15.248;2023-02-12T04:43:27;98712.75;;;-1.15;100.00
13867;BME280;7003;46.982;15.248;2023-02-12T04:45:54;98715.84;;;-1.31;100.00
13867;BME280;7003;46.982;15.248;2023-02-12T04:48:21;98712.81;;;-1.60;100.00
13867;BME280;7003;46.982;15.248;2023-02-12T04:50:53;98717.47;;;-1.68;100.00
13867;BME280;7003;46.982;15.248;2023-02-12T04:53:20;98728.63;;;-1.48;100.00
13867;BME280;7003;46.982;15.248;2023-02-12T04:55:49;98723.47;;;-1.30;100.00
13867;BME280;7003;46.982;15.248;2023-02-12T04:58:17;98721.19;;;-1.51;100.00
13867;BME280;7003;46.982;15.248;2023-02-12T05:00:44;98720.78;;;-1.48;100.00
13867;BME280;7003;46.982;15.248;2023-02-12T05:03:11;98742.09;;;-1.51;100.00
13867;BME280;7003;46.982;15.248;2023-02-12T05:05:41;98730.47;;;-1.62;100.00
13867;BME280;7003;46.982;15.248;2023-02-12T05:08:11;98736.09;;;-1.58;100.00
13867;BME280;7003;46.982;15.248;2023-02-12T05:10:38;98746.13;;;-1.55;100.00
13867;BME280;7003;46.982;15.248;2023-02-12T05:13:05;98746.31;;;-1.57;100.00
13867;BME280;7003;46.982;15.248;2023-02-12T05:15:32;98746.16;;;-1.68;100.00
13867;BME280;7003;46.982;15.248;2023-02-12T05:18:02;98762.78;;;-1.56;100.00
13867;BME280;7003;46.982;15.248;2023-02-12T05:20:29;98767.47;;;-1.71;100.00
13867;BME280;7003;46.982;15.248;2023-02-12T05:22:56;98765.88;;;-1.79;100.00
13867;BME280;7003;46.982;15.248;2023-02-12T05:25:24;98765.69;;;-1.84;100.00
13867;BME280;7003;46.982;15.248;2023-02-12T05:27:51;98786.34;;;-1.82;100.00
13867;BME280;7003;46.982;15.248;2023-02-12T05:30:23;98778.94;;;-1.79;100.00
13867;BME280;7003;46.982;15.248;2023-02-12T05:32:52;98789.56;;;-1.94;100.00
13867;BME280;7003;46.982;15.248;2023-02-12T05:35:19;98798.19;;;-1.80;100.00
13867;BME280;7003;46.982;15.248;2023-02-12T05:37:46;98800.41;;;-1.83;100.00
13867;BME280;7003;46.982;15.248;2023-02-12T05:40:14;98788.00;;;-1.95;100.00
13867;BME280;7003;46.982;15.248;2023-02-12T05:42:43;98792.41;;;-2.08;100.00
13867;BME280;7003;46.982;15.248;2023-02-12T05:45:10;98793.66;;;-2.17;100.00
13867;BME280;7003;46.982;15.248;2023-02-12T05:47:37;98791.41;;;-1.94;100.00
13867;BME280;7003;46.982;15.248;2023-02-12T05:50:05;98802.44;;;-1.99;100.00
13867;BME280;7003;46.982;15.248;2023-02-12T05:52:33;98803.88;;;-2.03;100.00
13867;BME280;7003;46.982;15.248;2023-02-12T05:55:04;98811.31;;;-2.19;100.00
13867;BME280;7003;46.982;15.248;2023-02-12T05:57:32;98816.09;;;-2.23;100.00
13867;BME280;7003;46.982;15.248;2023-02-12T06:00:08;98806.50;;;-2.29;100.00
13867;BME280;7003;46.982;15.248;2023-02-12T06:02:36;98807.69;;;-2.32;100.00
13867;BME280;7003;46.982;15.248;2023-02-12T06:05:05;98815.53;;;-2.25;100.00
13867;BME280;7003;46.982;15.248;2023-02-12T06:07:34;98813.72;;;-2.31;100.00
13867;BME280;7003;46.982;15.248;2023-02-12T06:10:07;98813.72;;;-2.38;100.00
13867;BME280;7003;46.982;15.248;2023-02-12T06:12:36;98836.16;;;-2.43;100.00
13867;BME280;7003;46.982;15.248;2023-02-12T06:15:07;98845.41;;;-2.34;100.00
13867;BME280;7003;46.982;15.248;2023-02-12T06:17:36;98846.59;;;-2.23;100.00
13867;BME280;7003;46.982;15.248;2023-02-12T06:20:08;98844.19;;;-2.18;100.00
13867;BME280;7003;46.982;15.248;2023-02-12T06:22:39;98851.81;;;-2.04;100.00
13867;BME280;7003;46.982;15.248;2023-02-12T06:25:08;98857.00;;;-2.04;100.00
13867;BME280;7003;46.982;15.248;2023-02-12T06:27:37;98862.03;;;-1.96;100.00
13867;BME280;7003;46.982;15.248;2023-02-12T06:30:09;98875.63;;;-1.94;100.00
13867;BME280;7003;46.982;15.248;2023-02-12T06:32:38;98885.06;;;-1.92;100.00
13867;BME280;7003;46.982;15.248;2023-02-12T06:35:06;98884.47;;;-1.81;100.00
13867;BME280;7003;46.982;15.248;2023-02-12T06:37:34;98901.50;;;-1.85;100.00
13867;BME280;7003;46.982;15.248;2023-02-12T06:40:05;98902.69;;;-1.68;100.00
13867;BME280;7003;46.982;15.248;2023-02-12T06:42:33;98910.91;;;-1.58;100.00
13867;BME280;7003;46.982;15.248;2023-02-12T06:45:02;98927.78;;;-1.47;100.00
13867;BME280;7003;46.982;15.248;2023-02-12T06:47:32;98925.34;;;-1.49;100.00
13867;BME280;7003;46.982;15.248;2023-02-12T06:50:01;98915.84;;;-1.24;100.00
13867;BME280;7003;46.982;15.248;2023-02-12T06:52:29;98914.34;;;-0.93;100.00
13867;BME280;7003;46.982;15.248;2023-02-12T06:54:57;98914.06;;;-0.79;100.00
13867;BME280;7003;46.982;15.248;2023-02-12T06:57:29;98918.16;;;-0.96;100.00
13867;BME280;7003;46.982;15.248;2023-02-12T06:59:57;98929.00;;;-0.99;100.00
13867;BME280;7003;46.982;15.248;2023-02-12T07:02:28;98922.63;;;-1.03;100.00
13867;BME280;7003;46.982;15.248;2023-02-12T07:05:03;98919.25;;;-1.17;100.00
13867;BME280;7003;46.982;15.248;2023-02-12T07:07:32;98935.09;;;-1.11;100.00
13867;BME280;7003;46.982;15.248;2023-02-12T07:10:02;98931.44;;;-1.04;100.00
13867;BME280;7003;46.982;15.248;2023-02-12T07:12:33;98935.84;;;-0.98;100.00
13867;BME280;7003;46.982;15.248;2023-02-12T07:15:03;98929.28;;;-0.69;100.00
13867;BME280;7003;46.982;15.248;2023-02-12T07:17:32;98942.97;;;-0.73;100.00
13867;BME280;7003;46.982;15.248;2023-02-12T07:20:08;98945.72;;;-0.62;100.00
13867;BME280;7003;46.982;15.248;2023-02-12T07:22:40;98946.81;;;-0.76;100.00
13867;BME280;7003;46.982;15.248;2023-02-12T07:25:11;98947.03;;;-0.77;100.00
13867;BME280;7003;46.982;15.248;2023-02-12T07:27:45;98943.78;;;-0.73;100.00
13867;BME280;7003;46.982;15.248;2023-02-12T07:30:19;98938.25;;;-0.52;100.00
13867;BME280;7003;46.982;15.248;2023-02-12T07:32:50;98952.91;;;-0.51;100.00
13867;BME280;7003;46.982;15.248;2023-02-12T07:35:22;98954.13;;;-0.53;100.00
13867;BME280;7003;46.982;15.248;2023-02-12T07:37:52;98944.81;;;-0.43;100.00
13867;BME280;7003;46.982;15.248;2023-02-12T07:40:22;98944.47;;;-0.21;100.00
13867;BME280;7003;46.982;15.248;2023-02-12T07:42:55;98950.16;;;-0.24;100.00
13867;BME280;7003;46.982;15.248;2023-02-12T07:45:28;98947.19;;;-0.34;100.00
13867;BME280;7003;46.982;15.248;2023-02-12T07:47:59;98953.13;;;-0.21;100.00
13867;BME280;7003;46.982;15.248;2023-02-12T07:50:35;98947.09;;;-0.21;100.00
13867;BME280;7003;46.982;15.248;2023-02-12T07:53:06;98943.06;;;-0.17;100.00
13867;BME280;7003;46.982;15.248;2023-02-12T07:55:36;98949.91;;;-0.16;100.00
13867;BME280;7003;46.982;15.248;2023-02-12T07:58:06;98943.84;;;0.08;100.00
13867;BME280;7003;46.982;15.248;2023-02-12T08:00:35;98936.19;;;0.38;100.00
13867;BME280;7003;46.982;15.248;2023-02-12T08:03:10;98939.09;;;0.48;100.00
13867;BME280;7003;46.982;15.248;2023-02-12T08:05:44;98932.69;;;0.62;100.00
13867;BME280;7003;46.982;15.248;2023-02-12T08:08:13;98935.63;;;0.91;100.00
13867;BME280;7003;46.982;15.248;2023-02-12T08:10:42;98936.72;;;1.01;100.00
13867;BME280;7003;46.982;15.248;2023-02-12T08:13:10;98935.91;;;1.01;100.00
13867;BME280;7003;46.982;15.248;2023-02-12T08:15:39;98939.44;;;1.25;100.00
13867;BME280;7003;46.982;15.248;2023-02-12T08:18:07;98947.31;;;1.25;100.00
13867;BME280;7003;46.982;15.248;2023-02-12T08:20:36;98943.88;;;1.42;100.00
13867;BME280;7003;46.982;15.248;2023-02-12T08:23:09;98937.09;;;1.65;100.00
13867;BME280;7003;46.982;15.248;2023-02-12T08:25:40;98938.00;;;2.00;100.00
13867;BME280;7003;46.982;15.248;2023-02-12T08:28:08;98939.63;;;2.13;100.00
13867;BME280;7003;46.982;15.248;2023-02-12T08:30:38;98937.13;;;2.29;100.00
13867;BME280;7003;46.982;15.248;2023-02-12T08:33:08;98951.50;;;2.50;100.00
13867;BME280;7003;46.982;15.248;2023-02-12T08:35:36;98954.94;;;2.86;100.00
13867;BME280;7003;46.982;15.248;2023-02-12T08:38:03;98945.53;;;3.01;100.00
13867;BME280;7003;46.982;15.248;2023-02-12T08:40:35;98945.63;;;3.06;100.00
13867;BME280;7003;46.982;15.248;2023-02-12T08:43:03;98940.44;;;3.12;100.00
13867;BME280;7003;46.982;15.248;2023-02-12T08:45:32;98944.41;;;3.26;100.00
13867;BME280;7003;46.982;15.248;2023-02-12T08:48:00;98945.03;;;3.44;100.00
13867;BME280;7003;46.982;15.248;2023-02-12T08:50:27;98949.13;;;3.52;100.00
13867;BME280;7003;46.982;15.248;2023-02-12T08:52:55;98950.47;;;3.83;100.00
13867;BME280;7003;46.982;15.248;2023-02-12T08:55:25;98947.72;;;4.06;100.00
13867;BME280;7003;46.982;15.248;2023-02-12T08:57:54;98952.25;;;4.28;100.00
13867;BME280;7003;46.982;15.248;2023-02-12T09:00:23;98952.25;;;4.44;100.00
13867;BME280;7003;46.982;15.248;2023-02-12T09:02:51;98950.00;;;4.70;100.00
13867;BME280;7003;46.982;15.248;2023-02-12T09:05:19;98949.63;;;4.83;100.00
13867;BME280;7003;46.982;15.248;2023-02-12T09:07:48;98945.41;;;4.82;100.00
13867;BME280;7003;46.982;15.248;2023-02-12T09:10:16;98958.00;;;5.18;100.00
13867;BME280;7003;46.982;15.248;2023-02-12T09:12:44;98959.84;;;5.66;100.00
13867;BME280;7003;46.982;15.248;2023-02-12T09:15:17;98957.00;;;6.27;96.38
13867;BME280;7003;46.982;15.248;2023-02-12T09:17:45;98956.56;;;6.40;81.80
13867;BME280;7003;46.982;15.248;2023-02-12T09:20:15;98964.56;;;6.97;85.85
13867;BME280;7003;46.982;15.248;2023-02-12T09:22:46;98969.13;;;7.07;79.24
13867;BME280;7003;46.982;15.248;2023-02-12T09:25:17;98967.13;;;7.29;76.61
13867;BME280;7003;46.982;15.248;2023-02-12T09:27:47;98973.13;;;7.87;76.52
13867;BME280;7003;46.982;15.248;2023-02-12T09:30:15;98976.09;;;8.31;73.06
13867;BME280;7003;46.982;15.248;2023-02-12T09:32:46;98971.31;;;8.48;73.58
13867;BME280;7003;46.982;15.248;2023-02-12T09:35:15;98980.28;;;8.06;72.65
13867;BME280;7003;46.982;15.248;2023-02-12T09:37:46;98979.81;;;8.50;72.99
13867;BME280;7003;46.982;15.248;2023-02-12T09:40:17;98983.22;;;8.15;71.86
13867;BME280;7003;46.982;15.248;2023-02-12T09:43:01;98984.53;;;7.97;73.24
13867;BME280;7003;46.982;15.248;2023-02-12T09:45:34;98996.72;;;8.08;69.70
13867;BME280;7003;46.982;15.248;2023-02-12T09:48:17;98995.16;;;8.28;69.53
13867;BME280;7003;46.982;15.248;2023-02-12T09:50:58;98992.00;;;8.41;67.00
13867;BME280;7003;46.982;15.248;2023-02-12T09:53:30;98996.22;;;8.52;65.83
13867;BME280;7003;46.982;15.248;2023-02-12T09:56:02;98993.00;;;8.96;67.99
13867;BME280;7003;46.982;15.248;2023-02-12T09:58:34;99006.13;;;9.41;64.55
13867;BME280;7003;46.982;15.248;2023-02-12T10:01:10;98997.56;;;9.54;64.97
13867;BME280;7003;46.982;15.248;2023-02-12T10:03:43;98990.84;;;9.72;62.07
13867;BME280;7003;46.982;15.248;2023-02-12T10:06:18;98986.34;;;10.12;62.10
13867;BME280;7003;46.982;15.248;2023-02-12T10:11:48;98982.38;;;11.91;58.31
13867;BME280;7003;46.982;15.248;2023-02-12T10:14:37;98989.28;;;12.76;55.80
13867;BME280;7003;46.982;15.248;2023-02-12T10:17:16;98985.75;;;12.94;49.74
13867;BME280;7003;46.982;15.248;2023-02-12T10:23:06;98993.97;;;12.51;51.22
13867;BME280;7003;46.982;15.248;2023-02-12T10:25:43;98983.38;;;12.14;53.29
13867;BME280;7003;46.982;15.248;2023-02-12T10:28:16;98980.50;;;12.89;52.10
13867;BME280;7003;46.982;15.248;2023-02-12T10:30:50;98977.44;;;12.95;50.82
13867;BME280;7003;46.982;15.248;2023-02-12T10:33:27;98976.66;;;12.95;48.36
13867;BME280;7003;46.982;15.248;2023-02-12T10:36:03;98974.41;;;13.29;49.67
13867;BME280;7003;46.982;15.248;2023-02-12T10:38:42;98976.22;;;12.28;47.85
13867;BME280;7003;46.982;15.248;2023-02-12T10:41:14;98971.09;;;12.13;48.76
13867;BME280;7003;46.982;15.248;2023-02-12T10:43:43;98972.47;;;12.10;50.46
13867;BME280;7003;46.982;15.248;2023-02-12T10:46:14;98975.19;;;12.24;47.95
13867;BME280;7003;46.982;15.248;2023-02-12T10:48:45;98978.94;;;12.55;49.99
13867;BME280;7003;46.982;15.248;2023-02-12T10:51:37;98977.63;;;12.39;49.25
13867;BME280;7003;46.982;15.248;2023-02-12T10:54:36;98974.69;;;13.41;49.67
13867;BME280;7003;46.982;15.248;2023-02-12T10:57:14;98968.56;;;13.41;47.18
13867;BME280;7003;46.982;15.248;2023-02-12T10:59:45;98960.44;;;14.18;48.60
13867;BME280;7003;46.982;15.248;2023-02-12T11:02:21;98960.97;;;14.29;47.56
13867;BME280;7003;46.982;15.248;2023-02-12T11:04:53;98959.50;;;15.46;47.35
13867;BME280;7003;46.982;15.248;2023-02-12T11:07:24;98957.03;;;15.75;46.19
13867;BME280;7003;46.982;15.248;2023-02-12T11:09:56;98955.47;;;16.09;43.39
13867;BME280;7003;46.982;15.248;2023-02-12T11:12:30;98953.72;;;16.13;44.42
13867;BME280;7003;46.982;15.248;2023-02-12T11:15:06;98951.13;;;15.39;44.89
13867;BME280;7003;46.982;15.248;2023-02-12T11:17:44;98952.94;;;16.04;46.43
13867;BME280;7003;46.982;15.248;2023-02-12T11:20:21;98944.38;;;16.19;44.59
13867;BME280;7003;46.982;15.248;2023-02-12T11:22:58;98944.56;;;15.79;43.78
13867;BME280;7003;46.982;15.248;2023-02-12T11:25:27;98941.88;;;16.05;41.10
13867;BME280;7003;46.982;15.248;2023-02-12T11:28:02;98947.44;;;14.47;40.15
13867;BME280;7003;46.982;15.248;2023-02-12T11:30:31;98933.91;;;14.83;41.61
13867;BME280;7003;46.982;15.248;2023-02-12T11:33:15;98938.03;;;14.89;41.47
13867;BME280;7003;46.982;15.248;2023-02-12T11:35:53;98931.97;;;15.15;41.54
13867;BME280;7003;46.982;15.248;2023-02-12T11:38:34;98932.25;;;15.61;42.25
13867;BME280;7003;46.982;15.248;2023-02-12T11:41:07;98937.13;;;16.20;45.38
13867;BME280;7003;46.982;15.248;2023-02-12T11:43:44;98937.34;;;17.16;42.87
13867;BME280;7003;46.982;15.248;2023-02-12T11:46:18;98933.88;;;17.66;41.53
13867;BME280;7003;46.982;15.248;2023-02-12T11:48:46;98945.38;;;17.25;39.68
13867;BME280;7003;46.982;15.248;2023-02-12T11:51:19;98925.09;;;17.78;40.25
13867;BME280;7003;46.982;15.248;2023-02-12T11:53:51;98921.06;;;18.37;39.50
13867;BME280;7003;46.982;15.248;2023-02-12T11:56:20;98922.25;;;18.28;38.17
13867;BME280;7003;46.982;15.248;2023-02-12T11:58:49;98924.78;;;18.12;39.32
13867;BME280;7003;46.982;15.248;2023-02-12T12:01:19;98916.13;;;18.06;39.67
13867;BME280;7003;46.982;15.248;2023-02-12T12:03:57;98926.56;;;17.46;38.25
13867;BME280;7003;46.982;15.248;2023-02-12T12:06:32;98918.09;;;16.68;41.18
13867;BME280;7003;46.982;15.248;2023-02-12T12:09:09;98918.19;;;15.73;44.75
13867;BME280;7003;46.982;15.248;2023-02-12T12:11:46;98917.53;;;17.21;43.44
13867;BME280;7003;46.982;15.248;2023-02-12T12:14:18;98912.91;;;17.80;39.08
13867;BME280;7003;46.982;15.248;2023-02-12T12:16:54;98910.94;;;15.73;42.20
13867;BME280;7003;46.982;15.248;2023-02-12T12:19:47;98905.72;;;14.86;44.34
13867;BME280;7003;46.982;15.248;2023-02-12T12:22:28;98901.59;;;16.86;42.62
13867;BME280;7003;46.982;15.248;2023-02-12T12:25:06;98894.75;;;17.89;40.86
13867;BME280;7003;46.982;15.248;2023-02-12T12:27:42;98901.00;;;17.81;37.63
13867;BME280;7003;46.982;15.248;2023-02-12T12:30:44;98894.69;;;18.31;36.94
13867;BME280;7003;46.982;15.248;2023-02-12T12:33:21;98883.09;;;18.63;34.43
13867;BME280;7003;46.982;15.248;2023-02-12T12:36:05;98882.75;;;17.66;36.55
13867;BME280;7003;46.982;15.248;2023-02-12T12:38:47;98877.66;;;16.64;38.45
13867;BME280;7003;46.982;15.248;2023-02-12T12:41:29;98873.84;;;17.03;37.92
13867;BME280;7003;46.982;15.248;2023-02-12T12:44:09;98879.66;;;16.21;36.78
13867;BME280;7003;46.982;15.248;2023-02-12T12:46:54;98874.59;;;16.19;36.21
13867;BME280;7003;46.982;15.248;2023-02-12T12:49:51;98871.28;;;15.27;39.67
13867;BME280;7003;46.982;15.248;2023-02-12T12:52:54;98867.94;;;17.10;36.98
13867;BME280;7003;46.982;15.248;2023-02-12T12:55:44;98859.63;;;17.44;35.98
13867;BME280;7003;46.982;15.248;2023-02-12T12:58:30;98869.59;;;15.74;37.83
13867;BME280;7003;46.982;15.248;2023-02-12T13:01:17;98855.47;;;16.29;37.04
13867;BME280;7003;46.982;15.248;2023-02-12T13:04:12;98860.16;;;15.68;39.99
13867;BME280;7003;46.982;15.248;2023-02-12T13:07:03;98857.13;;;16.51;38.96
13867;BME280;7003;46.982;15.248;2023-02-12T13:09:44;98862.75;;;16.20;37.33
13867;BME280;7003;46.982;15.248;2023-02-12T13:12:41;98860.31;;;14.41;41.72
13867;BME280;7003;46.982;15.248;2023-02-12T13:15:24;98851.75;;;15.96;39.67
13867;BME280;7003;46.982;15.248;2023-02-12T13:17:58;98848.16;;;17.77;37.50
13867;BME280;7003;46.982;15.248;2023-02-12T13:20:35;98852.34;;;17.45;36.22
13867;BME280;7003;46.982;15.248;2023-02-12T13:23:12;98864.69;;;16.58;37.64
13867;BME280;7003;46.982;15.248;2023-02-12T13:25:50;98857.84;;;15.10;39.35
13867;BME280;7003;46.982;15.248;2023-02-12T13:28:27;98862.59;;;13.81;43.83
13867;BME280;7003;46.982;15.248;2023-02-12T13:31:02;98858.66;;;14.01;42.72
13867;BME280;7003;46.982;15.248;2023-02-12T13:33:40;98863.84;;;14.28;42.54
13867;BME280;7003;46.982;15.248;2023-02-12T13:36:13;98861.78;;;13.58;44.21